Time;durP1;ratioP1;P1;durP2;ratioP2;P2;SDS_P1;SDS_P2;PMS_P1;PMS_P2;Temp;Humidity;BMP_temperature;BMP_pressure;BME280_temperature;BME280_humidity;BME280_pressure;Samples;Min_cycle;Max_cycle;Signal;HPM_P1;HPM_P2
2023/06/05 00:02:11;;;;;;;2.33;1.20;;;22.00;52.60;;;;;;5072133;28;20075;-62
2023/06/05 00:04:37;;;;;;;2.95;1.00;;;22.00;52.60;;;;;;5071556;28;20056;-62
2023/06/05 00:07:02;;;;;;;2.35;1.20;;;22.00;52.70;;;;;;5072519;28;20139;-61
2023/06/05 00:09:28;;;;;;;2.50;1.20;;;22.00;52.60;;;;;;5072306;28;20080;-61
2023/06/05 00:11:54;;;;;;;1.80;1.10;;;22.00;52.60;;;;;;5071756;28;20052;-62
2023/06/05 00:14:20;;;;;;;2.50;1.05;;;22.00;52.70;;;;;;5087546;28;20049;-62
2023/06/05 00:16:45;;;;;;;2.28;1.30;;;22.00;52.70;;;;;;5071988;28;20048;-62
2023/06/05 00:19:12;;;;;;;2.10;1.13;;;22.00;52.70;;;;;;5071340;28;20048;-62
2023/06/05 00:21:37;;;;;;;2.58;1.00;;;22.00;52.70;;;;;;5072268;28;20048;-62
2023/06/05 00:24:03;;;;;;;2.58;1.20;;;22.00;52.70;;;;;;5072294;28;20040;-62
2023/06/05 00:26:29;;;;;;;1.95;1.10;;;22.00;52.70;;;;;;5071005;28;20141;-62
2023/06/05 00:28:54;;;;;;;2.60;0.98;;;22.00;52.70;;;;;;5071138;28;20052;-62
2023/06/05 00:31:21;;;;;;;2.75;1.10;;;22.00;52.70;;;;;;5071862;28;20032;-62
2023/06/05 00:33:48;;;;;;;2.90;1.42;;;21.90;52.70;;;;;;5071615;28;20052;-62
2023/06/05 00:36:13;;;;;;;3.28;1.50;;;21.90;52.70;;;;;;5072061;28;20052;-62
2023/06/05 00:38:39;;;;;;;2.05;1.10;;;21.90;52.70;;;;;;5071467;28;20396;-61
2023/06/05 00:41:05;;;;;;;1.60;1.23;;;21.90;52.70;;;;;;5071039;28;20124;-61
2023/06/05 00:43:30;;;;;;;3.60;1.15;;;21.90;52.80;;;;;;5071802;28;20125;-62
2023/06/05 00:45:58;;;;;;;2.20;1.08;;;21.90;52.70;;;;;;5071355;28;20068;-62
2023/06/05 00:48:24;;;;;;;2.20;1.20;;;21.90;52.70;;;;;;5070681;28;20052;-62
2023/06/05 00:50:50;;;;;;;2.53;1.30;;;21.90;52.70;;;;;;5054719;28;20131;-62
2023/06/05 00:53:15;;;;;;;2.78;1.17;;;21.90;52.70;;;;;;5073300;28;20059;-62
2023/06/05 00:55:41;;;;;;;2.80;1.40;;;21.90;52.70;;;;;;5074393;28;20044;-62
2023/06/05 00:58:06;;;;;;;2.53;1.20;;;21.90;53.50;;;;;;5074104;28;20040;-62
2023/06/05 01:00:32;;;;;;;1.75;1.00;;;21.90;52.80;;;;;;5073277;28;20037;-62
2023/06/05 01:02:58;;;;;;;2.35;1.42;;;21.90;52.70;;;;;;5075361;28;20089;-62
2023/06/05 01:05:24;;;;;;;2.15;1.20;;;21.80;52.70;;;;;;5073960;28;20480;-62
2023/06/05 01:07:49;;;;;;;2.33;1.10;;;21.90;52.70;;;;;;5074631;28;20059;-62
2023/06/05 01:10:15;;;;;;;2.30;0.98;;;21.80;52.70;;;;;;5074808;28;20048;-62
2023/06/05 01:13:21;;;;;;;2.28;1.20;;;21.80;52.70;;;;;;5075398;28;20043;-62
2023/06/05 01:15:48;;;;;;;2.03;1.20;;;21.80;52.70;;;;;;5035574;28;20045;-62
2023/06/05 01:18:13;;;;;;;2.33;1.38;;;21.80;52.70;;;;;;5071058;28;20092;-61
2023/06/05 01:20:39;;;;;;;2.33;1.10;;;21.80;52.70;;;;;;5073432;28;20076;-61
2023/06/05 01:23:06;;;;;;;1.83;1.17;;;21.80;52.70;;;;;;5074882;28;20123;-62
2023/06/05 01:25:32;;;;;;;2.35;1.13;;;21.80;52.80;;;;;;5074766;28;20041;-62
2023/06/05 01:28:18;;;;;;;2.20;1.10;;;21.80;52.70;;;;;;5072842;28;20127;-62
2023/06/05 01:31:00;;;;;;;2.33;1.05;;;21.80;52.70;;;;;;5073834;28;20056;-62
2023/06/05 01:33:34;;;;;;;1.67;1.15;;;21.80;52.80;;;;;;5073603;28;20090;-62
2023/06/05 01:36:04;;;;;;;2.58;1.23;;;21.80;52.80;;;;;;5072694;28;20056;-62
2023/06/05 01:38:32;;;;;;;2.90;1.45;;;21.80;52.70;;;;;;5073185;28;20441;-62
2023/06/05 01:40:57;;;;;;;2.75;1.30;;;21.80;52.70;;;;;;5073634;28;20052;-61
2023/06/05 01:43:23;;;;;;;3.15;1.30;;;21.70;52.70;;;;;;5072389;28;20041;-62
2023/06/05 01:45:48;;;;;;;2.58;1.20;;;21.70;52.70;;;;;;5073162;28;20048;-62
2023/06/05 01:48:14;;;;;;;2.05;1.15;;;21.70;52.70;;;;;;5055927;28;20045;-62
2023/06/05 01:50:42;;;;;;;2.83;1.30;;;21.70;52.70;;;;;;5072676;28;20102;-61
2023/06/05 01:53:07;;;;;;;1.70;1.20;;;21.70;52.80;;;;;;5074197;28;20045;-62
2023/06/05 01:55:33;;;;;;;1.77;1.13;;;21.70;52.70;;;;;;5074434;28;20186;-62
2023/06/05 01:57:59;;;;;;;1.88;1.10;;;21.70;52.80;;;;;;5073449;28;20040;-62
2023/06/05 02:00:25;;;;;;;3.15;1.17;;;21.70;52.80;;;;;;5073882;28;20040;-61
2023/06/05 02:02:51;;;;;;;2.00;1.15;;;21.70;52.80;;;;;;5072515;28;20040;-62
2023/06/05 02:05:17;;;;;;;1.98;1.20;;;21.70;52.80;;;;;;5073233;28;20045;-62
2023/06/05 02:07:49;;;;;;;1.73;1.20;;;21.70;52.80;;;;;;5071605;28;20055;-62
2023/06/05 02:10:14;;;;;;;3.20;1.40;;;21.70;52.80;;;;;;5073179;28;20044;-62
2023/06/05 02:12:42;;;;;;;3.00;1.60;;;21.70;52.80;;;;;;5073974;28;20047;-61
2023/06/05 02:15:09;;;;;;;1.63;1.13;;;21.70;52.80;;;;;;5073493;28;20420;-62
2023/06/05 02:17:34;;;;;;;2.80;1.30;;;21.70;52.90;;;;;;5072735;28;20456;-62
2023/06/05 02:20:01;;;;;;;1.70;0.93;;;21.60;52.80;;;;;;5073997;28;20565;-61
2023/06/05 02:22:26;;;;;;;3.00;1.33;;;21.60;52.80;;;;;;5072475;28;20059;-61
2023/06/05 02:24:53;;;;;;;2.03;1.13;;;21.60;52.80;;;;;;5073036;28;20377;-62
2023/06/05 02:27:19;;;;;;;2.15;1.30;;;21.60;52.80;;;;;;5071837;28;20056;-61
2023/06/05 02:29:44;;;;;;;2.00;1.15;;;21.60;52.80;;;;;;5073783;28;20140;-62
2023/06/05 02:32:11;;;;;;;3.33;1.50;;;21.60;52.80;;;;;;5072479;28;20040;-62
2023/06/05 02:34:37;;;;;;;1.80;1.10;;;21.60;52.80;;;;;;5072223;28;20048;-62
2023/06/05 02:37:03;;;;;;;2.55;1.30;;;21.60;52.80;;;;;;5073403;28;20458;-61
2023/06/05 02:39:30;;;;;;;2.40;1.30;;;21.60;52.80;;;;;;5072694;28;20487;-61
2023/06/05 02:41:56;;;;;;;2.25;1.40;;;21.60;52.80;;;;;;5073474;28;20044;-62
2023/06/05 02:44:22;;;;;;;1.90;1.10;;;21.60;52.80;;;;;;5071733;28;20045;-62
2023/06/05 02:46:47;;;;;;;2.10;1.20;;;21.60;52.80;;;;;;5072253;28;20070;-62
2023/06/05 02:49:13;;;;;;;2.83;1.33;;;21.50;52.80;;;;;;5073018;28;20072;-62
2023/06/05 02:51:39;;;;;;;1.80;1.20;;;21.60;52.80;;;;;;5073429;28;20502;-61
2023/06/05 02:54:04;;;;;;;2.47;1.17;;;21.60;52.90;;;;;;5072678;28;20040;-62
2023/06/05 02:56:30;;;;;;;2.00;1.02;;;21.50;52.80;;;;;;5073073;28;20041;-61
2023/06/05 02:58:56;;;;;;;2.00;1.17;;;21.50;52.80;;;;;;5073453;28;20400;-61
2023/06/05 03:01:22;;;;;;;2.70;1.35;;;21.50;52.90;;;;;;5071791;28;20171;-61
2023/06/05 03:03:48;;;;;;;2.00;1.30;;;21.50;52.80;;;;;;5073269;28;20044;-61
2023/06/05 03:06:17;;;;;;;2.20;1.15;;;21.50;52.80;;;;;;5072140;28;20057;-62
2023/06/05 03:08:42;;;;;;;3.13;1.48;;;21.50;52.90;;;;;;5073012;28;20044;-62
2023/06/05 03:11:08;;;;;;;2.45;1.20;;;21.50;52.80;;;;;;5072630;28;20052;-62
2023/06/05 03:13:34;;;;;;;1.90;1.17;;;21.50;52.90;;;;;;5071861;28;20054;-62
2023/06/05 03:16:03;;;;;;;2.45;1.25;;;21.50;52.90;;;;;;5072957;28;20037;-61
2023/06/05 03:18:29;;;;;;;2.25;1.23;;;21.50;52.90;;;;;;5072671;28;20044;-61
2023/06/05 03:20:54;;;;;;;2.22;1.23;;;21.50;52.90;;;;;;5072290;28;20368;-61
2023/06/05 03:23:24;;;;;;;2.30;1.40;;;21.50;52.90;;;;;;5072517;28;20048;-62
2023/06/05 03:25:50;;;;;;;2.25;1.30;;;21.40;52.80;;;;;;5072563;28;20071;-62
2023/06/05 03:28:16;;;;;;;3.20;1.30;;;21.50;52.90;;;;;;5071779;28;20102;-62
2023/06/05 03:30:41;;;;;;;2.90;1.10;;;21.50;52.90;;;;;;5072948;28;20040;-62
2023/06/05 03:33:07;;;;;;;2.20;1.15;;;21.50;52.90;;;;;;5072255;28;20052;-62
2023/06/05 03:35:32;;;;;;;2.38;1.30;;;21.50;53.00;;;;;;5072132;28;20040;-62
2023/06/05 03:37:59;;;;;;;2.75;1.33;;;21.40;52.90;;;;;;5072566;28;20385;-62
2023/06/05 03:40:24;;;;;;;2.28;1.27;;;21.50;53.00;;;;;;5072239;28;20127;-62
2023/06/05 03:42:50;;;;;;;2.38;1.17;;;21.40;52.90;;;;;;5071731;28;20131;-62
2023/06/05 03:45:16;;;;;;;2.20;1.30;;;21.40;52.90;;;;;;5070976;28;20111;-62
2023/06/05 03:47:44;;;;;;;1.70;1.20;;;21.40;52.90;;;;;;5072444;28;20044;-62
2023/06/05 03:50:10;;;;;;;2.58;1.20;;;21.40;52.90;;;;;;5071575;28;20037;-62
2023/06/05 03:52:39;;;;;;;2.38;1.35;;;21.40;52.90;;;;;;5072482;28;20036;-62
2023/06/05 03:55:07;;;;;;;2.30;1.10;;;21.40;53.00;;;;;;5072740;28;20080;-62
2023/06/05 03:57:33;;;;;;;1.88;1.17;;;21.40;52.90;;;;;;5071779;28;20048;-62
2023/06/05 03:59:59;;;;;;;2.60;1.40;;;21.40;53.00;;;;;;5072597;28;20087;-62
2023/06/05 04:02:25;;;;;;;2.78;1.40;;;21.40;52.90;;;;;;5061160;28;20973;-61
2023/06/05 04:04:51;;;;;;;2.25;1.20;;;21.30;52.90;;;;;;5069105;28;20097;-62
2023/06/05 04:07:17;;;;;;;1.70;1.10;;;21.40;52.90;;;;;;5070802;28;20051;-62
2023/06/05 04:09:42;;;;;;;2.85;1.40;;;21.40;52.90;;;;;;5071793;28;20045;-62
2023/06/05 04:12:10;;;;;;;2.53;1.40;;;21.30;52.90;;;;;;5071843;28;20443;-62
2023/06/05 04:14:36;;;;;;;2.40;1.50;;;21.40;53.00;;;;;;5072489;28;20055;-62
2023/06/05 04:17:02;;;;;;;2.35;1.30;;;21.40;53.00;;;;;;5071655;28;20055;-62
2023/06/05 04:19:28;;;;;;;1.95;1.30;;;21.40;53.00;;;;;;5072197;28;20036;-62
2023/06/05 04:21:53;;;;;;;1.98;1.23;;;21.40;53.00;;;;;;5072208;28;20393;-62
2023/06/05 04:24:19;;;;;;;2.75;1.08;;;21.30;53.00;;;;;;5071171;28;20036;-62
2023/06/05 04:26:45;;;;;;;3.90;1.25;;;21.40;53.00;;;;;;5074276;28;20049;-62
2023/06/05 04:29:15;;;;;;;2.35;1.13;;;21.40;53.00;;;;;;5075822;28;20508;-62
2023/06/05 04:31:41;;;;;;;3.33;2.20;;;21.40;53.00;;;;;;5074004;28;20048;-62
2023/06/05 04:34:08;;;;;;;2.13;1.27;;;21.40;53.00;;;;;;5074579;28;20131;-62
2023/06/05 04:36:34;;;;;;;2.83;1.15;;;21.40;53.00;;;;;;5075727;28;20481;-62
2023/06/05 04:39:01;;;;;;;3.03;1.20;;;21.40;53.00;;;;;;5075297;28;20591;-62
2023/06/05 04:41:29;;;;;;;2.73;1.50;;;21.40;53.00;;;;;;5075587;28;20052;-62
2023/06/05 04:43:57;;;;;;;2.00;1.15;;;21.40;53.00;;;;;;5075953;28;20421;-62
2023/06/05 04:46:23;;;;;;;1.73;1.02;;;21.40;53.00;;;;;;5074445;28;20404;-62
2023/06/05 04:48:50;;;;;;;1.48;1.10;;;21.40;53.00;;;;;;5075526;28;20055;-62
2023/06/05 04:51:15;;;;;;;2.47;1.30;;;21.40;53.00;;;;;;5075504;28;20040;-62
2023/06/05 04:53:41;;;;;;;2.35;1.25;;;21.40;53.00;;;;;;5073372;28;20062;-62
2023/06/05 04:56:07;;;;;;;1.88;1.20;;;21.40;53.00;;;;;;5075305;28;20037;-62
2023/06/05 04:58:33;;;;;;;3.10;1.40;;;21.40;53.00;;;;;;5075675;28;20090;-62
2023/06/05 05:01:06;;;;;;;1.90;1.17;;;21.50;53.10;;;;;;5074828;28;20036;-62
2023/06/05 05:03:31;;;;;;;3.20;1.23;;;21.50;53.10;;;;;;5075240;28;20045;-62
2023/06/05 05:05:57;;;;;;;2.28;1.15;;;21.40;53.00;;;;;;5074639;28;20043;-62
2023/06/05 05:08:23;;;;;;;2.85;1.13;;;21.40;53.00;;;;;;5074777;28;20074;-62
2023/06/05 05:10:48;;;;;;;1.95;1.20;;;21.50;53.00;;;;;;5075426;28;20041;-62
2023/06/05 05:13:14;;;;;;;3.83;1.10;;;21.50;53.00;;;;;;5074108;28;20131;-62
2023/06/05 05:15:39;;;;;;;1.73;1.13;;;21.50;53.00;;;;;;5075326;28;20047;-62
2023/06/05 05:18:05;;;;;;;1.77;1.25;;;21.50;53.00;;;;;;5075191;28;20476;-62
2023/06/05 05:20:32;;;;;;;2.50;1.25;;;21.50;53.00;;;;;;5074131;28;20435;-62
2023/06/05 05:23:00;;;;;;;3.20;1.38;;;21.50;53.00;;;;;;5075140;28;20041;-62
2023/06/05 05:25:26;;;;;;;1.80;1.08;;;21.50;53.00;;;;;;5074672;28;20342;-62
2023/06/05 05:27:51;;;;;;;2.45;1.20;;;21.50;53.00;;;;;;5074228;28;20534;-62
2023/06/05 05:30:17;;;;;;;2.25;1.30;;;21.50;52.90;;;;;;5074834;28;20036;-62
2023/06/05 05:32:42;;;;;;;3.17;1.25;;;21.50;52.90;;;;;;5074719;28;20395;-62
2023/06/05 05:35:08;;;;;;;4.20;1.58;;;21.60;53.00;;;;;;5073714;28;20071;-62
2023/06/05 05:37:34;;;;;;;2.83;1.30;;;21.60;53.00;;;;;;5074151;28;20171;-62
2023/06/05 05:40:00;;;;;;;1.83;1.17;;;21.50;52.90;;;;;;5074830;28;20507;-62
2023/06/05 05:42:25;;;;;;;1.75;1.13;;;21.50;52.90;;;;;;5073843;28;20048;-62
2023/06/05 05:44:51;;;;;;;2.83;1.17;;;21.50;52.90;;;;;;5090426;28;20072;-62
2023/06/05 05:47:16;;;;;;;2.35;1.00;;;21.60;52.90;;;;;;5074066;28;20144;-62
2023/06/05 05:49:42;;;;;;;2.13;1.52;;;21.60;52.90;;;;;;5073961;28;20036;-62
2023/06/05 05:52:08;;;;;;;2.42;1.20;;;21.60;52.90;;;;;;5074260;28;20052;-61
2023/06/05 05:54:33;;;;;;;2.67;1.00;;;21.60;52.90;;;;;;5074551;28;20048;-62
2023/06/05 05:56:59;;;;;;;2.78;1.50;;;21.60;52.90;;;;;;5072198;28;20051;-62
2023/06/05 05:59:24;;;;;;;2.78;1.45;;;21.60;52.90;;;;;;5073875;28;20621;-62
2023/06/05 06:01:50;;;;;;;1.63;1.15;;;21.60;52.80;;;;;;5074051;28;20045;-62
2023/06/05 06:04:19;;;;;;;1.88;1.02;;;21.60;52.90;;;;;;5072222;28;20083;-62
2023/06/05 06:06:47;;;;;;;2.53;1.30;;;21.60;52.90;;;;;;5074025;28;20080;-62
2023/06/05 06:09:14;;;;;;;2.20;1.45;;;21.60;52.80;;;;;;5072828;28;20523;-62
2023/06/05 06:11:40;;;;;;;1.88;1.10;;;21.60;52.90;;;;;;5074229;28;20044;-62
2023/06/05 06:14:06;;;;;;;2.88;1.40;;;21.60;52.80;;;;;;5073875;28;20492;-62
2023/06/05 06:16:31;;;;;;;1.98;1.30;;;21.60;52.80;;;;;;5073010;28;20098;-62
2023/06/05 06:18:57;;;;;;;2.15;1.10;;;21.60;52.90;;;;;;5073881;28;20041;-62
2023/06/05 06:21:23;;;;;;;2.13;1.40;;;21.60;52.80;;;;;;5072604;28;20093;-62
2023/06/05 06:23:48;;;;;;;1.80;1.30;;;21.60;52.90;;;;;;5071733;28;20070;-62
2023/06/05 06:26:14;;;;;;;1.83;0.90;;;21.60;52.80;;;;;;5073488;28;20061;-62
2023/06/05 06:28:40;;;;;;;1.65;1.05;;;21.60;52.80;;;;;;5073799;28;20115;-62
2023/06/05 06:31:06;;;;;;;1.67;1.08;;;21.60;52.80;;;;;;5072830;28;20044;-62
2023/06/05 06:33:31;;;;;;;2.00;1.08;;;21.60;52.80;;;;;;5073695;28;20040;-61
2023/06/05 06:35:58;;;;;;;2.33;1.27;;;21.60;52.80;;;;;;5073335;28;20500;-62
2023/06/05 06:38:29;;;;;;;2.63;1.20;;;21.60;52.80;;;;;;5072700;28;20052;-62
2023/06/05 06:40:56;;;;;;;2.00;1.30;;;21.60;52.80;;;;;;5073846;28;20116;-61
2023/06/05 06:43:22;;;;;;;2.10;1.10;;;21.60;52.80;;;;;;5073446;28;20052;-62
2023/06/05 06:45:49;;;;;;;2.35;1.40;;;21.60;52.80;;;;;;5072648;28;20045;-62
2023/06/05 06:48:16;;;;;;;2.83;1.33;;;21.60;52.80;;;;;;5072256;28;20052;-62
2023/06/05 06:50:42;;;;;;;2.13;1.10;;;21.60;52.80;;;;;;5073245;28;20059;-62
2023/06/05 06:53:08;;;;;;;1.88;1.13;;;21.60;52.80;;;;;;5088125;28;20036;-62
2023/06/05 06:55:33;;;;;;;2.42;1.23;;;21.60;52.80;;;;;;5073236;28;20098;-62
2023/06/05 06:57:59;;;;;;;2.67;1.15;;;21.60;52.80;;;;;;5073430;28;20036;-62
2023/06/05 07:00:25;;;;;;;2.17;1.17;;;21.60;52.80;;;;;;5072294;28;20040;-62
2023/06/05 07:02:51;;;;;;;1.40;1.02;;;21.60;52.80;;;;;;5072826;28;20087;-62
2023/06/05 07:05:17;;;;;;;2.53;1.20;;;21.70;52.90;;;;;;5072667;28;20040;-61
2023/06/05 07:07:43;;;;;;;2.38;1.10;;;21.70;52.80;;;;;;5072869;28;20082;-61
2023/06/05 07:10:09;;;;;;;2.47;1.20;;;21.70;52.80;;;;;;5072637;28;20080;-61
2023/06/05 07:12:34;;;;;;;2.17;1.23;;;21.70;52.70;;;;;;5070959;28;20076;-62
2023/06/05 07:15:00;;;;;;;1.63;1.20;;;21.70;52.70;;;;;;5072919;28;20079;-62
2023/06/05 07:17:28;;;;;;;2.75;1.20;;;21.70;52.70;;;;;;5072420;28;20041;-62
2023/06/05 07:19:54;;;;;;;1.88;1.02;;;21.70;52.70;;;;;;5072284;28;20080;-62
2023/06/05 07:22:20;;;;;;;2.53;1.08;;;21.80;52.70;;;;;;5072710;28;20083;-62
2023/06/05 07:24:46;;;;;;;2.05;0.98;;;21.70;52.60;;;;;;5073067;28;20028;-62
2023/06/05 07:27:11;;;;;;;1.75;1.08;;;21.80;52.70;;;;;;5071580;28;20439;-64
2023/06/05 07:29:37;;;;;;;2.78;1.20;;;21.80;52.60;;;;;;5072631;28;20074;-62
2023/06/05 07:32:07;;;;;;;1.90;1.17;;;21.80;52.60;;;;;;5072737;28;20060;-62
2023/06/05 07:34:33;;;;;;;2.58;1.10;;;21.80;52.60;;;;;;5070672;28;20535;-62
2023/06/05 07:36:59;;;;;;;1.80;1.00;;;21.90;52.70;;;;;;5072668;28;20044;-62
2023/06/05 07:39:24;;;;;;;1.73;1.10;;;21.90;52.70;;;;;;5072538;28;20036;-62
2023/06/05 07:41:50;;;;;;;2.15;1.10;;;21.90;52.70;;;;;;5072194;28;20135;-61
2023/06/05 07:44:18;;;;;;;2.20;1.23;;;21.90;52.70;;;;;;5072593;28;20045;-62
2023/06/05 07:46:44;;;;;;;2.85;1.15;;;21.90;52.70;;;;;;5071274;28;20045;-62
2023/06/05 07:49:09;;;;;;;1.77;1.20;;;21.90;52.60;;;;;;5071493;28;20041;-61
2023/06/05 07:51:36;;;;;;;1.63;1.27;;;21.90;52.60;;;;;;5072438;28;20051;-62
2023/06/05 07:54:12;;;;;;;1.80;1.15;;;21.90;52.70;;;;;;5072786;28;20048;-62
2023/06/05 07:56:38;;;;;;;1.38;0.93;;;21.90;52.60;;;;;;5071735;28;20047;-61
2023/06/05 07:59:04;;;;;;;1.90;1.08;;;21.90;52.60;;;;;;5072406;28;20040;-62
2023/06/05 08:01:30;;;;;;;1.40;0.90;;;21.90;52.60;;;;;;5075871;28;20498;-62
2023/06/05 08:03:56;;;;;;;2.05;1.25;;;22.00;53.40;;;;;;5075779;28;20543;-62
2023/06/05 08:06:24;;;;;;;1.92;1.25;;;22.00;52.70;;;;;;5076416;28;20094;-62
2023/06/05 08:08:49;;;;;;;3.55;0.85;;;22.00;52.70;;;;;;5075810;28;20047;-62
2023/06/05 08:11:15;;;;;;;3.80;1.40;;;22.00;52.70;;;;;;5076304;28;20036;-62
2023/06/05 08:13:40;;;;;;;2.38;1.20;;;22.00;52.60;;;;;;5076522;28;20399;-62
2023/06/05 08:16:06;;;;;;;3.13;1.27;;;22.00;52.60;;;;;;5075424;28;20044;-62
2023/06/05 08:18:32;;;;;;;2.45;1.27;;;22.00;52.60;;;;;;5076320;28;20040;-62
2023/06/05 08:20:58;;;;;;;1.98;1.15;;;22.00;52.60;;;;;;5076373;28;20036;-62
2023/06/05 08:23:23;;;;;;;1.60;1.00;;;22.00;52.60;;;;;;5075306;28;20503;-61
2023/06/05 08:25:49;;;;;;;2.75;1.20;;;22.10;52.60;;;;;;5075880;28;20146;-61
2023/06/05 08:28:16;;;;;;;2.70;1.30;;;22.10;52.60;;;;;;5075772;28;20056;-61
2023/06/05 08:30:42;;;;;;;2.58;1.10;;;22.10;53.10;;;;;;5075298;28;20044;-61
2023/06/05 08:33:07;;;;;;;1.75;0.90;;;22.10;53.30;;;;;;5075583;28;20395;-61
2023/06/05 08:35:33;;;;;;;1.40;1.00;;;22.10;52.60;;;;;;5074762;28;20051;-61
2023/06/05 08:37:58;;;;;;;1.38;1.00;;;22.10;52.60;;;;;;5074935;28;20072;-61
2023/06/05 08:40:28;;;;;;;3.08;1.23;;;22.10;52.60;;;;;;5075681;28;20493;-61
2023/06/05 08:42:54;;;;;;;1.95;0.93;;;22.10;52.50;;;;;;5074401;28;20473;-61
2023/06/05 08:45:19;;;;;;;2.08;1.25;;;22.20;52.60;;;;;;5074868;28;20044;-61
2023/06/05 08:47:45;;;;;;;2.03;1.10;;;22.20;52.60;;;;;;5075610;28;20049;-61
2023/06/05 08:50:10;;;;;;;1.58;1.10;;;22.20;52.60;;;;;;5074211;28;20047;-61
2023/06/05 08:52:39;;;;;;;1.40;0.90;;;22.20;52.60;;;;;;5074852;28;20404;-61
2023/06/05 08:55:05;;;;;;;1.15;0.93;;;22.20;52.60;;;;;;5074223;28;20057;-61
2023/06/05 08:57:36;;;;;;;1.83;0.90;;;22.20;52.50;;;;;;5075332;28;20043;-61
2023/06/05 09:00:07;;;;;;;2.13;1.00;;;22.20;52.50;;;;;;5090445;28;20094;-61
2023/06/05 09:02:33;;;;;;;3.08;1.27;;;22.20;52.50;;;;;;5075538;28;20045;-61
2023/06/05 09:05:00;;;;;;;2.22;1.00;;;22.20;52.50;;;;;;5074570;28;20040;-61
2023/06/05 09:07:28;;;;;;;2.13;1.10;;;22.20;52.50;;;;;;5075141;28;20048;-61
2023/06/05 09:09:53;;;;;;;2.63;1.20;;;22.20;52.40;;;;;;5075144;28;20047;-61
2023/06/05 09:12:19;;;;;;;1.70;1.10;;;22.30;52.50;;;;;;5073377;28;20041;-61
2023/06/05 09:14:45;;;;;;;1.80;1.08;;;22.30;52.50;;;;;;5075373;28;20396;-61
2023/06/05 09:17:13;;;;;;;2.03;1.10;;;22.30;52.50;;;;;;5074648;28;20037;-61
2023/06/05 09:19:40;;;;;;;2.10;1.10;;;22.30;52.60;;;;;;5074320;28;20080;-61
2023/06/05 09:22:09;;;;;;;1.55;1.13;;;22.30;52.50;;;;;;5074845;28;20492;-61
2023/06/05 09:24:34;;;;;;;1.95;0.95;;;22.30;52.50;;;;;;5075133;28;20075;-61
2023/06/05 09:27:02;;;;;;;1.30;0.90;;;22.30;52.50;;;;;;5073895;28;20076;-63
2023/06/05 09:29:32;;;;;;;3.95;1.25;;;22.30;52.50;;;;;;5074825;28;20074;-61
2023/06/05 09:31:59;;;;;;;1.83;1.00;;;22.30;52.40;;;;;;5074831;28;20051;-62
2023/06/05 09:34:26;;;;;;;1.58;1.08;;;22.30;52.50;;;;;;5072528;28;20123;-61
2023/06/05 09:36:51;;;;;;;1.77;1.33;;;22.30;52.50;;;;;;5074715;28;20085;-61
2023/06/05 09:39:19;;;;;;;1.98;0.95;;;22.30;52.50;;;;;;5073024;28;20045;-61
2023/06/05 09:41:46;;;;;;;1.43;0.90;;;22.30;52.40;;;;;;5074178;28;20098;-61
2023/06/05 09:44:11;;;;;;;1.92;1.00;;;22.30;52.50;;;;;;5074374;28;20048;-61
2023/06/05 09:46:59;;;;;;;1.85;1.08;;;22.30;52.40;;;;;;5074639;28;20037;-61
2023/06/05 09:49:32;;;;;;;2.40;1.00;;;22.40;52.50;;;;;;5073646;28;20045;-61
2023/06/05 09:51:59;;;;;;;2.60;1.33;;;22.40;52.50;;;;;;5074606;28;20047;-61
2023/06/05 09:54:31;;;;;;;2.55;1.08;;;22.40;52.50;;;;;;5072486;28;20051;-61
2023/06/05 09:57:01;;;;;;;1.30;1.00;;;22.40;52.50;;;;;;5074573;28;20044;-61
2023/06/05 09:59:31;;;;;;;1.50;1.00;;;22.40;52.50;;;;;;5073905;28;20487;-61
2023/06/05 10:01:57;;;;;;;1.92;1.00;;;22.40;52.40;;;;;;5073601;28;20050;-61
2023/06/05 10:04:24;;;;;;;1.45;0.93;;;22.40;52.40;;;;;;5072501;28;20079;-61
2023/06/05 10:06:53;;;;;;;1.50;0.95;;;22.40;52.40;;;;;;5073213;28;20052;-61
2023/06/05 10:09:19;;;;;;;1.17;0.80;;;22.40;52.50;;;;;;5071740;28;20045;-61
2023/06/05 10:11:48;;;;;;;1.95;0.90;;;22.40;52.50;;;;;;5072681;28;20044;-61
2023/06/05 10:14:13;;;;;;;2.25;1.10;;;22.40;52.50;;;;;;5073873;28;20112;-61
2023/06/05 10:16:39;;;;;;;1.67;1.00;;;22.40;52.50;;;;;;5073042;28;20494;-61
2023/06/05 10:19:05;;;;;;;1.73;1.02;;;22.40;52.40;;;;;;5072707;28;20538;-61
2023/06/05 10:21:30;;;;;;;2.25;1.05;;;22.40;52.40;;;;;;5072898;28;20068;-61
2023/06/05 10:24:04;;;;;;;2.20;1.25;;;22.40;52.40;;;;;;5071787;28;20408;-61
2023/06/05 10:26:48;;;;;;;1.65;1.17;;;22.40;52.50;;;;;;5072051;28;20102;-62
2023/06/05 10:29:31;;;;;;;2.22;1.00;;;22.50;52.50;;;;;;5073295;28;20166;-62
2023/06/05 10:32:08;;;;;;;1.38;1.00;;;22.40;52.50;;;;;;5072603;28;20070;-62
2023/06/05 10:35:04;;;;;;;1.95;0.80;;;22.50;52.60;;;;;;5072293;28;20419;-62
2023/06/05 10:37:54;;;;;;;2.00;1.15;;;22.50;52.60;;;;;;5054567;28;20106;-61
2023/06/05 10:40:20;;;;;;;1.73;0.93;;;22.40;52.50;;;;;;5073407;28;20036;-61
2023/06/05 10:42:45;;;;;;;1.70;1.00;;;22.50;52.50;;;;;;5072469;28;20048;-61
2023/06/05 10:45:11;;;;;;;1.73;1.08;;;22.40;52.50;;;;;;5072346;28;20036;-62
2023/06/05 10:47:37;;;;;;;1.60;1.10;;;22.50;52.60;;;;;;5073103;28;20041;-61
2023/06/05 10:50:17;;;;;;;1.70;1.15;;;22.50;52.60;;;;;;5073303;28;20123;-61
2023/06/05 10:52:43;;;;;;;1.55;1.10;;;22.50;52.60;;;;;;5072718;28;20052;-62
2023/06/05 10:55:09;;;;;;;2.42;1.10;;;22.50;52.60;;;;;;5072983;28;20477;-61
2023/06/05 10:58:14;;;;;;;2.65;1.00;;;22.50;52.60;;;;;;5072310;28;20493;-61
2023/06/05 11:01:20;;;;;;;2.40;0.90;;;22.50;52.60;;;;;;5050885;28;20052;-61
2023/06/05 11:03:56;;;;;;;1.63;1.00;;;22.50;52.60;;;;;;5051072;28;20055;-62
2023/06/05 11:06:22;;;;;;;2.65;1.17;;;22.50;52.60;;;;;;5067983;28;20060;-62
2023/06/05 11:09:13;;;;;;;2.15;1.00;;;22.50;52.60;;;;;;5071715;28;20116;-61
2023/06/05 11:11:56;;;;;;;1.30;0.90;;;22.50;52.70;;;;;;5072171;28;20476;-61
2023/06/05 11:14:21;;;;;;;1.45;0.77;;;22.50;52.70;;;;;;5072800;28;20055;-61
2023/06/05 11:16:47;;;;;;;1.63;0.90;;;22.50;52.60;;;;;;5072962;28;20045;-61
2023/06/05 11:19:16;;;;;;;1.70;1.00;;;22.50;52.60;;;;;;5070597;28;20040;-61
2023/06/05 11:22:17;;;;;;;2.05;1.02;;;22.50;52.70;;;;;;5071456;28;20123;-62
2023/06/05 11:24:43;;;;;;;1.40;0.98;;;22.50;52.60;;;;;;5050718;28;20503;-62
2023/06/05 11:27:49;;;;;;;2.40;1.20;;;22.50;52.70;;;;;;5066979;28;20052;-61
2023/06/05 11:30:16;;;;;;;1.65;1.02;;;22.50;52.70;;;;;;5070802;28;20060;-62
2023/06/05 11:32:42;;;;;;;1.52;1.08;;;22.50;52.70;;;;;;5072045;28;20041;-61
2023/06/05 11:35:10;;;;;;;1.48;0.98;;;22.50;52.70;;;;;;5072172;28;20051;-61
2023/06/05 11:37:37;;;;;;;1.92;0.98;;;22.60;52.70;;;;;;5072913;28;20072;-61
2023/06/05 11:40:09;;;;;;;1.60;0.95;;;22.60;52.70;;;;;;5071812;28;20105;-61
2023/06/05 11:42:36;;;;;;;2.28;0.98;;;22.60;52.70;;;;;;5071432;28;20306;-61
2023/06/05 11:45:02;;;;;;;1.92;1.00;;;22.60;52.70;;;;;;5072840;28;20041;-61
2023/06/05 11:47:30;;;;;;;1.90;1.08;;;22.60;52.70;;;;;;5071558;28;20045;-61
2023/06/05 11:50:16;;;;;;;2.58;1.45;;;22.60;52.70;;;;;;5072505;28;20461;-61
2023/06/05 11:52:42;;;;;;;1.83;1.05;;;22.60;52.70;;;;;;5072702;28;20044;-61
2023/06/05 11:55:14;;;;;;;1.15;0.85;;;22.60;52.70;;;;;;5070276;28;20067;-62
2023/06/05 11:57:43;;;;;;;2.53;1.10;;;22.60;52.70;;;;;;5072692;28;20063;-61
2023/06/05 12:00:10;;;;;;;1.77;0.95;;;22.60;52.70;;;;;;5072482;28;20052;-62
2023/06/05 12:02:37;;;;;;;1.65;0.90;;;22.60;52.70;;;;;;5070360;28;20476;-62
2023/06/05 12:05:03;;;;;;;1.85;1.02;;;22.60;52.70;;;;;;5072586;28;20045;-63
2023/06/05 12:07:29;;;;;;;1.75;0.90;;;22.60;52.70;;;;;;5070219;28;20127;-62
2023/06/05 12:09:55;;;;;;;1.60;0.90;;;22.60;52.70;;;;;;5071717;28;20135;-62
2023/06/05 12:12:20;;;;;;;1.55;1.02;;;22.60;53.40;;;;;;5070822;28;20123;-62
2023/06/05 12:14:46;;;;;;;1.88;1.00;;;22.60;52.70;;;;;;5071908;28;20079;-63
2023/06/05 12:17:12;;;;;;;2.33;0.90;;;22.60;52.80;;;;;;5071808;28;20052;-62
2023/06/05 12:19:37;;;;;;;1.58;1.00;;;22.60;52.70;;;;;;5072318;28;20496;-62
2023/06/05 12:22:05;;;;;;;2.25;1.02;;;22.70;52.80;;;;;;5071475;28;20388;-62
2023/06/05 12:24:31;;;;;;;1.83;0.97;;;22.70;52.70;;;;;;5072285;28;20028;-63
2023/06/05 12:27:01;;;;;;;1.98;0.80;;;22.70;52.70;;;;;;5072086;28;20091;-62
2023/06/05 12:29:29;;;;;;;2.08;1.23;;;22.60;52.70;;;;;;5071032;28;20102;-63
2023/06/05 12:31:56;;;;;;;1.77;0.90;;;22.60;52.70;;;;;;5072104;28;20052;-62
2023/06/05 12:34:47;;;;;;;1.60;0.90;;;22.70;52.80;;;;;;5071715;28;20053;-62
2023/06/05 12:37:31;;;;;;;1.75;1.08;;;22.70;52.80;;;;;;5071295;28;20052;-62
2023/06/05 12:40:00;;;;;;;1.55;0.93;;;22.70;52.70;;;;;;5072296;28;20045;-63
2023/06/05 12:42:25;;;;;;;1.67;1.10;;;22.70;52.80;;;;;;5070416;28;20125;-62
2023/06/05 12:44:51;;;;;;;2.42;1.00;;;22.70;52.70;;;;;;5071213;28;20044;-62
2023/06/05 12:47:17;;;;;;;2.75;1.20;;;22.70;52.70;;;;;;5072861;28;20041;-63
2023/06/05 12:49:42;;;;;;;1.50;0.80;;;22.70;52.70;;;;;;5075583;28;20048;-62
2023/06/05 12:52:11;;;;;;;1.55;0.93;;;22.70;52.70;;;;;;5073708;28;20036;-62